Time;durP1;ratioP1;P1;durP2;ratioP2;P2;SDS_P1;SDS_P2;PMS_P1;PMS_P2;Temp;Humidity;BMP_temperature;BMP_pressure;BME280_temperature;BME280_humidity;BME280_pressure;Samples;Min_cycle;Max_cycle;Signal;HPM_P1;HPM_P2
2024/01/18 00:00:09;;;;;;;3.00;1.33;;;;;;;2.27;58.50;98677.97;5032600;28;20542;-39
2024/01/18 00:02:34;;;;;;;2.20;2.05;;;;;;;2.21;58.33;98667.91;5035139;28;20036;-39
2024/01/18 00:05:00;;;;;;;0.30;0.28;;;;;;;2.33;58.47;98667.25;5029346;28;20033;-39
2024/01/18 00:07:25;;;;;;;5.57;3.30;;;;;;;2.34;58.37;98683.66;5033982;28;20043;-39
2024/01/18 00:09:50;;;;;;;0.63;0.60;;;;;;;2.39;58.58;98686.84;5023114;28;20034;-39
2024/01/18 00:12:16;;;;;;;4.00;2.47;;;;;;;2.36;57.98;98694.78;5035782;28;20041;-39
2024/01/18 00:14:41;;;;;;;0.95;0.73;;;;;;;2.24;57.85;98684.19;5038787;28;20128;-38
2024/01/18 00:17:06;;;;;;;0.73;0.73;;;;;;;2.10;58.12;98689.31;5036828;28;20036;-38
2024/01/18 00:19:31;;;;;;;1.50;1.33;;;;;;;1.95;58.01;98688.38;5025776;28;20128;-37
2024/01/18 00:21:57;;;;;;;1.48;1.35;;;;;;;2.07;58.17;98698.06;5039545;28;20491;-38
2024/01/18 00:24:22;;;;;;;2.67;2.47;;;;;;;1.64;58.76;98706.47;5039005;28;20391;-39
2024/01/18 00:26:47;;;;;;;2.15;0.98;;;;;;;1.47;59.90;98699.56;5042741;28;20037;-39
2024/01/18 00:29:12;;;;;;;0.85;0.80;;;;;;;1.63;59.59;98703.94;5038667;28;20430;-38
2024/01/18 00:31:38;;;;;;;9.45;8.60;;;;;;;1.67;59.38;98713.22;5041054;28;20039;-39
2024/01/18 00:34:03;;;;;;;1.73;1.30;;;;;;;1.50;59.44;98714.13;5036144;28;20033;-39
2024/01/18 00:36:28;;;;;;;0.60;0.52;;;;;;;1.56;59.61;98718.97;5036297;28;20107;-39
2024/01/18 00:38:54;;;;;;;2.90;1.58;;;;;;;1.53;59.40;98721.72;5032768;28;20036;-37
2024/01/18 00:41:20;;;;;;;0.80;0.75;;;;;;;1.40;59.53;98724.16;5037924;28;20025;-38
2024/01/18 00:43:46;;;;;;;0.32;0.32;;;;;;;1.51;59.88;98734.78;5041110;28;20041;-39
2024/01/18 00:46:12;;;;;;;1.48;1.38;;;;;;;1.65;58.75;98718.50;5031750;28;20036;-38
2024/01/18 00:48:37;;;;;;;1.83;1.73;;;;;;;1.30;59.83;98717.75;5042436;28;20053;-37
2024/01/18 00:51:02;;;;;;;2.22;1.08;;;;;;;1.28;59.32;98725.63;5019920;28;20044;-38
2024/01/18 00:53:28;;;;;;;0.40;0.35;;;;;;;1.18;60.02;98729.59;5037894;28;20400;-38
2024/01/18 00:55:53;;;;;;;0.52;0.35;;;;;;;1.53;59.48;98729.50;5037875;28;20045;-37
2024/01/18 00:58:18;;;;;;;1.95;1.58;;;;;;;1.72;59.15;98736.31;5020590;28;20037;-38
2024/01/18 01:00:44;;;;;;;9.10;3.47;;;;;;;1.76;58.81;98741.25;5036743;28;20025;-37
2024/01/18 01:03:09;;;;;;;0.43;0.35;;;;;;;1.84;58.77;98759.00;5036491;28;20028;-39
2024/01/18 01:05:34;;;;;;;0.40;0.25;;;;;;;2.01;58.11;98750.31;5038511;28;20037;-38
2024/01/18 01:07:59;;;;;;;0.32;0.25;;;;;;;2.21;58.03;98756.16;5037867;28;20036;-37
2024/01/18 01:10:25;;;;;;;1.05;0.57;;;;;;;2.24;57.54;98751.66;5037770;28;20025;-38
2024/01/18 01:12:50;;;;;;;1.35;0.77;;;;;;;2.19;57.98;98753.66;5034502;28;20082;-38
2024/01/18 01:15:16;;;;;;;0.65;0.35;;;;;;;2.35;57.60;98768.38;5035274;28;20504;-38
2024/01/18 01:17:41;;;;;;;2.90;1.08;;;;;;;2.09;57.51;98776.66;5040964;28;20521;-39
2024/01/18 01:20:09;;;;;;;6.53;3.72;;;;;;;1.39;58.96;98766.53;5042583;28;20037;-38
2024/01/18 01:22:35;;;;;;;2.83;2.30;;;;;;;1.89;58.61;98763.97;5037724;28;20703;-38
2024/01/18 01:25:00;;;;;;;1.45;0.68;;;;;;;2.09;58.21;98768.06;5033005;28;20045;-38
2024/01/18 01:27:26;;;;;;;4.85;2.30;;;;;;;1.91;57.74;98775.91;5037765;28;20896;-39
2024/01/18 01:29:51;;;;;;;0.10;0.10;;;;;;;1.92;58.10;98794.91;5035753;28;20071;-39
2024/01/18 01:32:16;;;;;;;0.45;0.38;;;;;;;1.93;57.96;98797.44;5036965;28;20082;-38
2024/01/18 01:34:41;;;;;;;0.50;0.22;;;;;;;2.04;58.32;98791.63;5035093;28;20036;-39
2024/01/18 01:37:07;;;;;;;1.25;0.77;;;;;;;1.98;58.33;98799.78;5037225;28;20037;-38
2024/01/18 01:39:32;;;;;;;2.70;1.05;;;;;;;2.11;58.43;98803.38;5037570;28;20106;-39
2024/01/18 01:41:57;;;;;;;5.80;3.72;;;;;;;1.79;57.69;98797.31;5031735;28;20079;-38
2024/01/18 01:44:22;;;;;;;3.90;1.52;;;;;;;1.97;58.03;98803.28;5031843;28;20036;-39
2024/01/18 01:46:48;;;;;;;5.95;2.85;;;;;;;1.56;58.59;98801.94;5032801;28;20037;-38
2024/01/18 01:49:13;;;;;;;2.67;1.60;;;;;;;1.88;58.34;98801.19;5034605;28;20071;-38
2024/01/18 01:51:42;;;;;;;2.35;1.48;;;;;;;2.04;57.83;98801.19;5037040;28;20068;-39
2024/01/18 01:54:10;;;;;;;2.85;1.65;;;;;;;2.08;58.47;98798.34;5035961;28;20032;-39
2024/01/18 01:56:38;;;;;;;6.88;2.97;;;;;;;1.97;57.85;98800.69;5040457;28;20078;-38
2024/01/18 01:59:08;;;;;;;2.35;2.15;;;;;;;1.91;58.02;98806.19;5040399;28;20029;-39
2024/01/18 02:01:34;;;;;;;2.35;1.95;;;;;;;1.73;58.42;98813.19;5039066;28;20094;-39
2024/01/18 02:03:59;;;;;;;2.35;2.03;;;;;;;1.92;58.29;98823.44;5044469;28;20057;-37
2024/01/18 02:06:25;;;;;;;2.00;1.38;;;;;;;1.91;58.20;98826.94;5042740;28;20037;-38
2024/01/18 02:08:50;;;;;;;4.32;3.58;;;;;;;1.96;57.60;98830.13;5041891;28;20027;-38
2024/01/18 02:11:16;;;;;;;0.45;0.35;;;;;;;1.78;58.01;98837.97;5040027;28;20115;-38
2024/01/18 02:13:41;;;;;;;0.63;0.43;;;;;;;1.62;58.50;98839.66;5035373;28;20030;-39
2024/01/18 02:16:07;;;;;;;6.63;4.45;;;;;;;1.46;59.05;98839.63;5035870;28;20048;-37
2024/01/18 02:18:32;;;;;;;1.05;0.90;;;;;;;1.54;59.26;98854.78;5039930;28;20041;-38
2024/01/18 02:20:58;;;;;;;5.15;2.15;;;;;;;1.54;59.32;98852.19;5040764;28;20426;-38
2024/01/18 02:23:27;;;;;;;2.53;1.83;;;;;;;1.31;59.70;98849.00;5036491;28;20055;-39
2024/01/18 02:25:52;;;;;;;1.75;1.65;;;;;;;1.33;59.91;98848.03;5035325;28;20029;-39
2024/01/18 02:28:17;;;;;;;4.53;2.13;;;;;;;1.44;59.64;98852.63;5024257;28;20031;-39
2024/01/18 02:30:42;;;;;;;0.85;0.75;;;;;;;1.37;59.31;98854.72;5040854;28;20531;-38
2024/01/18 02:33:08;;;;;;;0.65;0.45;;;;;;;1.15;60.08;98854.94;5036793;28;20036;-38
2024/01/18 02:35:34;;;;;;;3.92;2.85;;;;;;;1.06;60.85;98855.41;5037202;28;20601;-38
2024/01/18 02:37:59;;;;;;;2.88;2.47;;;;;;;1.06;61.09;98848.44;5037457;28;20083;-38
2024/01/18 02:40:24;;;;;;;11.20;3.55;;;;;;;1.44;60.19;98850.06;5037667;28;20451;-39
2024/01/18 02:42:50;;;;;;;3.22;2.15;;;;;;;1.53;60.06;98853.94;5037119;28;20529;-37
2024/01/18 02:45:16;;;;;;;4.43;2.63;;;;;;;1.26;60.28;98862.19;5035641;28;20433;-39
2024/01/18 02:47:41;;;;;;;0.40;0.40;;;;;;;1.17;60.55;98860.88;5042134;28;20037;-38
2024/01/18 02:50:07;;;;;;;1.77;1.65;;;;;;;1.35;60.18;98866.94;5040663;28;20047;-39
2024/01/18 02:52:33;;;;;;;10.57;4.57;;;;;;;0.99;60.70;98872.13;5039218;28;20488;-39
2024/01/18 02:54:58;;;;;;;1.75;1.05;;;;;;;1.25;60.34;98873.47;5036430;28;20491;-39
2024/01/18 02:57:23;;;;;;;5.75;2.60;;;;;;;0.87;61.14;98877.00;5036282;28;20041;-39
2024/01/18 02:59:48;;;;;;;0.95;0.55;;;;;;;1.39;60.15;98874.53;5033083;28;20037;-38
2024/01/18 03:02:14;;;;;;;1.38;1.00;;;;;;;1.31;60.21;98875.75;5028101;28;20033;-39
2024/01/18 03:04:39;;;;;;;1.05;0.47;;;;;;;1.45;59.67;98876.81;5030178;28;20094;-38
2024/01/18 03:07:05;;;;;;;5.05;2.15;;;;;;;1.24;60.53;98887.34;5014682;28;20037;-38
2024/01/18 03:09:30;;;;;;;3.08;2.83;;;;;;;1.35;60.95;98889.41;5031479;28;20499;-38
2024/01/18 03:11:55;;;;;;;1.13;1.00;;;;;;;1.58;60.25;98892.63;5028375;28;20033;-39
2024/01/18 03:14:21;;;;;;;3.15;1.77;;;;;;;1.55;59.37;98897.94;5031287;28;20145;-37
2024/01/18 03:16:46;;;;;;;3.47;1.75;;;;;;;1.44;59.88;98898.47;5031693;28;20051;-38
2024/01/18 03:19:14;;;;;;;1.75;0.75;;;;;;;1.74;58.97;98909.03;5035125;28;20040;-38
2024/01/18 03:21:40;;;;;;;5.18;1.63;;;;;;;1.41;59.93;98909.00;5019667;28;20123;-39
2024/01/18 03:24:08;;;;;;;3.70;2.28;;;;;;;1.56;59.84;98904.81;5041211;28;20583;-38
2024/01/18 03:26:34;;;;;;;1.92;1.75;;;;;;;1.50;59.32;98909.38;5038852;28;20040;-39
2024/01/18 03:28:59;;;;;;;2.22;0.95;;;;;;;0.90;61.17;98910.53;5040290;28;20034;-38
2024/01/18 03:31:24;;;;;;;4.00;2.63;;;;;;;1.40;60.64;98915.94;5036151;28;20072;-37
2024/01/18 03:33:50;;;;;;;3.00;1.65;;;;;;;1.47;60.45;98917.28;5031301;28;20507;-39
2024/01/18 03:36:15;;;;;;;1.77;1.52;;;;;;;1.55;59.48;98926.47;5032613;28;20496;-39
2024/01/18 03:38:40;;;;;;;4.40;2.78;;;;;;;1.56;59.11;98923.78;5033435;28;20047;-38
2024/01/18 03:41:05;;;;;;;1.77;0.98;;;;;;;1.52;59.70;98927.44;5014727;28;20124;-38
2024/01/18 03:43:31;;;;;;;2.67;1.63;;;;;;;1.54;59.73;98927.38;5013143;28;20491;-37
2024/01/18 03:45:56;;;;;;;2.65;1.92;;;;;;;1.57;59.68;98924.63;5032391;28;21087;-39
2024/01/18 03:48:21;;;;;;;2.15;1.90;;;;;;;1.78;58.79;98920.94;5029644;28;20037;-38
2024/01/18 03:50:47;;;;;;;3.88;2.03;;;;;;;1.78;58.56;98920.13;5030444;28;20519;-37
2024/01/18 03:53:12;;;;;;;2.17;0.95;;;;;;;1.71;58.66;98919.59;5030973;28;20041;-38
2024/01/18 03:55:38;;;;;;;1.95;1.45;;;;;;;1.67;59.23;98921.47;5032694;28;20110;-39
2024/01/18 03:58:03;;;;;;;1.52;1.23;;;;;;;1.75;58.40;98920.28;5034570;28;20048;-38
2024/01/18 04:00:28;;;;;;;1.98;1.85;;;;;;;1.91;58.66;98926.34;5040226;28;20078;-38
2024/01/18 04:02:54;;;;;;;0.65;0.45;;;;;;;1.80;58.62;98931.25;5031135;28;20087;-38
2024/01/18 04:05:19;;;;;;;1.83;1.65;;;;;;;1.71;58.83;98937.75;5033827;28;20048;-38
2024/01/18 04:07:44;;;;;;;1.77;1.35;;;;;;;1.72;58.81;98942.03;5029344;28;20395;-39
2024/01/18 04:10:10;;;;;;;1.40;1.30;;;;;;;1.56;59.08;98934.16;5026736;28;20032;-38
2024/01/18 04:12:36;;;;;;;0.98;0.40;;;;;;;1.46;59.28;98935.53;5032159;28;20503;-38
2024/01/18 04:15:01;;;;;;;10.43;8.02;;;;;;;1.50;59.61;98947.44;5036857;28;20036;-39
2024/01/18 04:17:27;;;;;;;1.42;0.82;;;;;;;1.57;59.16;98958.34;5038670;28;20044;-38
2024/01/18 04:19:52;;;;;;;4.88;2.65;;;;;;;1.40;59.50;98962.59;5038745;28;20040;-38
2024/01/18 04:22:18;;;;;;;1.40;0.80;;;;;;;1.19;60.76;98959.28;5039342;28;24233;-38
2024/01/18 04:24:45;;;;;;;0.65;0.50;;;;;;;1.29;59.91;98962.25;5030272;28;20033;-48
2024/01/18 04:27:10;;;;;;;2.38;1.63;;;;;;;1.58;59.53;98967.78;5030077;28;20480;-38
2024/01/18 04:29:36;;;;;;;0.55;0.40;;;;;;;1.73;58.98;98969.63;5015920;28;20045;-38
2024/01/18 04:32:01;;;;;;;12.27;5.53;;;;;;;1.89;58.72;98979.25;5029940;28;20032;-38
2024/01/18 04:34:26;;;;;;;1.30;1.05;;;;;;;1.95;58.57;98974.59;5027057;28;20055;-39
2024/01/18 04:36:51;;;;;;;1.48;0.88;;;;;;;1.97;59.18;98982.28;5022732;28;20051;-38
2024/01/18 04:39:17;;;;;;;0.68;0.40;;;;;;;1.78;59.15;98993.56;5031577;28;20033;-38
2024/01/18 04:41:43;;;;;;;0.75;0.40;;;;;;;1.75;59.75;98985.94;5031534;28;20029;-38
2024/01/18 04:44:08;;;;;;;24.00;13.25;;;;;;;1.93;59.45;98985.94;5029163;28;20532;-38
2024/01/18 04:46:33;;;;;;;2.55;1.50;;;;;;;2.04;59.49;98990.59;5037559;28;20033;-38
2024/01/18 04:48:58;;;;;;;2.30;1.02;;;;;;;2.20;59.29;98999.28;5039621;28;20103;-38
2024/01/18 04:51:24;;;;;;;3.17;2.80;;;;;;;2.27;59.03;98998.03;5022862;28;20037;-39
2024/01/18 04:53:49;;;;;;;0.80;0.40;;;;;;;2.38;59.16;99007.88;5042368;28;20670;-37
2024/01/18 04:56:15;;;;;;;3.13;1.60;;;;;;;2.44;58.59;99002.38;5047436;28;20036;-38
2024/01/18 04:58:40;;;;;;;1.02;0.55;;;;;;;2.50;58.07;98992.56;5040565;28;20028;-37
2024/01/18 05:01:06;;;;;;;2.10;0.93;;;;;;;2.46;58.18;98991.88;5034130;28;20056;-37
2024/01/18 05:03:31;;;;;;;1.40;0.63;;;;;;;2.29;57.42;98997.97;5035969;28;20032;-39
2024/01/18 05:05:57;;;;;;;7.13;2.90;;;;;;;2.13;57.85;98997.88;5041993;28;20037;-39
2024/01/18 05:08:22;;;;;;;1.55;0.68;;;;;;;2.23;58.67;98993.94;5041196;28;20029;-38
2024/01/18 05:10:48;;;;;;;2.03;1.08;;;;;;;2.34;58.50;98995.13;5039259;28;20492;-39
2024/01/18 05:13:13;;;;;;;1.90;1.02;;;;;;;2.34;58.45;99011.56;5034222;28;22032;-38
2024/01/18 05:15:38;;;;;;;0.22;0.22;;;;;;;2.19;57.87;99017.53;5033593;28;20064;-38
2024/01/18 05:18:06;;;;;;;0.65;0.35;;;;;;;2.06;58.60;99020.72;5035542;28;20542;-39
2024/01/18 05:20:32;;;;;;;0.60;0.47;;;;;;;1.90;58.06;99027.59;5031494;28;20025;-38
2024/01/18 05:22:57;;;;;;;4.20;1.92;;;;;;;1.84;58.69;99033.91;5033526;28;20034;-38
2024/01/18 05:25:22;;;;;;;1.55;0.82;;;;;;;1.70;58.74;99036.34;5034434;28;20044;-37
2024/01/18 05:27:49;;;;;;;0.82;0.57;;;;;;;1.85;58.90;99034.78;5017823;28;20104;-37
2024/01/18 05:30:14;;;;;;;2.10;1.45;;;;;;;1.64;58.80;99037.47;5033098;28;20033;-39
2024/01/18 05:32:39;;;;;;;1.20;0.77;;;;;;;1.98;59.36;99043.63;5037289;28;20094;-39
2024/01/18 05:35:05;;;;;;;0.45;0.40;;;;;;;2.02;58.95;99042.56;5031283;28;20028;-38
2024/01/18 05:37:30;;;;;;;1.95;1.17;;;;;;;1.95;58.85;99036.00;5034359;28;20033;-38
2024/01/18 05:39:56;;;;;;;1.25;0.80;;;;;;;2.11;58.79;99031.72;5037421;28;20032;-39
2024/01/18 05:42:23;;;;;;;1.50;0.85;;;;;;;2.00;58.39;99038.34;5038707;28;20166;-38
2024/01/18 05:44:51;;;;;;;1.27;0.63;;;;;;;2.17;58.44;99037.53;5036433;28;20029;-39
2024/01/18 05:47:16;;;;;;;0.65;0.43;;;;;;;2.21;58.49;99039.03;5041265;28;20072;-39
2024/01/18 05:49:41;;;;;;;1.42;0.77;;;;;;;1.97;59.11;99034.16;5047219;28;20064;-38
2024/01/18 05:52:07;;;;;;;1.30;0.63;;;;;;;2.01;59.07;99038.28;5049616;28;20032;-39
2024/01/18 05:54:33;;;;;;;1.33;0.68;;;;;;;1.23;60.59;99046.31;5047723;28;20052;-38
2024/01/18 05:57:00;;;;;;;6.65;2.70;;;;;;;1.25;60.95;99052.25;5044226;28;20029;-38
2024/01/18 05:59:25;;;;;;;4.45;2.80;;;;;;;1.32;61.05;99063.19;5041568;28;20045;-38
2024/01/18 06:01:50;;;;;;;1.50;1.25;;;;;;;1.35;61.02;99065.63;5041113;28;20170;-39
2024/01/18 06:04:16;;;;;;;1.95;0.93;;;;;;;1.32;61.22;99063.19;5009151;28;20025;-39
2024/01/18 06:06:41;;;;;;;1.45;0.82;;;;;;;1.26;60.85;99060.88;5042991;28;20037;-37
2024/01/18 06:09:06;;;;;;;3.47;2.58;;;;;;;0.96;61.65;99057.03;5039396;28;20101;-38
2024/01/18 06:11:32;;;;;;;2.58;2.38;;;;;;;0.97;61.92;99063.88;5039797;28;20479;-37
2024/01/18 06:13:57;;;;;;;2.60;1.80;;;;;;;1.02;61.74;99061.94;5040209;28;20040;-39
2024/01/18 06:16:22;;;;;;;3.85;2.22;;;;;;;1.09;61.90;99065.09;5037539;28;20535;-39
2024/01/18 06:18:47;;;;;;;2.47;1.70;;;;;;;0.91;62.73;99067.59;5042879;28;20033;-37
2024/01/18 06:21:13;;;;;;;1.42;1.33;;;;;;;0.44;63.41;99080.88;5042563;28;20048;-38
2024/01/18 06:23:39;;;;;;;6.82;2.17;;;;;;;0.22;64.77;99080.94;5039507;28;20495;-39
2024/01/18 06:26:10;;;;;;;0.60;0.45;;;;;;;0.47;64.88;99080.75;5040228;28;20037;-38
2024/01/18 06:28:35;;;;;;;1.50;1.30;;;;;;;0.64;64.68;99089.53;5039518;28;20021;-39
2024/01/18 06:31:02;;;;;;;1.23;0.65;;;;;;;0.56;64.04;99100.22;5041026;28;20491;-38
2024/01/18 06:33:27;;;;;;;0.65;0.43;;;;;;;1.03;63.44;99099.03;5041234;28;20025;-38
2024/01/18 06:35:52;;;;;;;2.33;1.38;;;;;;;1.26;62.03;99115.31;5035549;28;20091;-37
2024/01/18 06:38:20;;;;;;;0.88;0.55;;;;;;;1.23;61.72;99120.63;5043397;28;20087;-38
2024/01/18 06:40:45;;;;;;;0.63;0.50;;;;;;;1.33;61.79;99114.94;5043862;28;20029;-37
2024/01/18 06:43:11;;;;;;;1.92;1.13;;;;;;;1.37;61.44;99120.84;5041787;28;20028;-38
2024/01/18 06:45:36;;;;;;;0.52;0.40;;;;;;;1.33;61.67;99129.66;5019505;28;20029;-37
2024/01/18 06:48:02;;;;;;;8.02;3.85;;;;;;;1.13;62.77;99128.81;5040892;28;20057;-38
2024/01/18 06:50:27;;;;;;;0.38;0.32;;;;;;;1.13;62.67;99140.91;5043570;28;20443;-37
2024/01/18 06:52:52;;;;;;;3.25;3.03;;;;;;;1.39;61.34;99146.66;5041107;28;20059;-39
2024/01/18 06:55:18;;;;;;;3.20;3.00;;;;;;;1.45;61.31;99152.41;5042181;28;20369;-37
2024/01/18 06:57:48;;;;;;;0.65;0.47;;;;;;;1.30;62.17;99148.78;5047738;28;20067;-38
2024/01/18 07:00:14;;;;;;;2.55;1.23;;;;;;;1.30;61.93;99148.78;5040601;28;20114;-39
2024/01/18 07:02:39;;;;;;;1.55;0.95;;;;;;;1.44;62.17;99150.72;5036910;28;20391;-37
2024/01/18 07:05:06;;;;;;;8.43;3.35;;;;;;;1.30;62.13;99142.75;5033912;28;24306;-37
2024/01/18 07:07:31;;;;;;;1.13;0.95;;;;;;;1.29;62.54;99151.41;5037848;28;20029;-39
2024/01/18 07:09:57;;;;;;;1.55;1.17;;;;;;;1.39;62.05;99149.25;5039854;28;20418;-38
2024/01/18 07:12:22;;;;;;;1.85;1.50;;;;;;;1.45;61.58;99152.41;5032425;28;20141;-39
2024/01/18 07:14:47;;;;;;;1.50;0.75;;;;;;;1.48;62.26;99154.88;5032130;28;20037;-39
2024/01/18 07:17:12;;;;;;;1.50;0.75;;;;;;;1.55;62.22;99162.38;5034114;28;21135;-37
2024/01/18 07:19:38;;;;;;;1.05;0.63;;;;;;;1.64;62.61;99161.94;5040983;28;20029;-38
2024/01/18 07:22:03;;;;;;;0.73;0.55;;;;;;;1.93;61.81;99157.16;5037195;28;20116;-39
2024/01/18 07:24:30;;;;;;;0.43;0.43;;;;;;;2.10;61.14;99174.53;5041272;28;20108;-37
2024/01/18 07:26:57;;;;;;;1.95;1.08;;;;;;;2.22;60.88;99163.53;5033964;28;20503;-39
2024/01/18 07:29:22;;;;;;;0.57;0.47;;;;;;;2.33;60.87;99163.03;5041721;28;20036;-39
2024/01/18 07:31:47;;;;;;;1.10;0.63;;;;;;;2.39;60.92;99162.72;5043243;28;20044;-38
2024/01/18 07:34:13;;;;;;;1.58;0.85;;;;;;;2.52;60.02;99173.34;5036870;28;20487;-38
2024/01/18 07:36:38;;;;;;;1.23;0.73;;;;;;;2.63;60.10;99170.22;5038687;28;20037;-38
2024/01/18 07:39:03;;;;;;;0.57;0.38;;;;;;;2.71;59.96;99186.25;5044584;28;20029;-38
2024/01/18 07:41:28;;;;;;;3.42;1.70;;;;;;;2.81;59.93;99188.34;5041854;28;20036;-39
2024/01/18 07:43:54;;;;;;;1.67;0.82;;;;;;;2.83;59.87;99184.78;5040348;28;20179;-39
2024/01/18 07:46:19;;;;;;;0.75;0.50;;;;;;;2.86;59.79;99181.19;5044730;28;20080;-39
2024/01/18 07:48:44;;;;;;;1.08;0.60;;;;;;;2.80;59.67;99187.53;5042750;28;20032;-39
2024/01/18 07:51:10;;;;;;;1.13;0.60;;;;;;;2.89;59.56;99205.25;5041117;28;20170;-39
2024/01/18 07:53:35;;;;;;;0.88;0.50;;;;;;;2.77;59.69;99194.66;5045310;28;20033;-38
2024/01/18 07:56:01;;;;;;;2.08;1.05;;;;;;;2.63;59.31;99201.38;5043486;28;20037;-39
2024/01/18 07:58:26;;;;;;;1.88;0.90;;;;;;;2.38;59.93;99205.16;5029002;28;20055;-39
2024/01/18 08:00:53;;;;;;;0.40;0.22;;;;;;;2.47;60.61;99203.03;5045042;28;20029;-38
2024/01/18 08:03:18;;;;;;;0.63;0.43;;;;;;;2.57;60.55;99199.06;5038397;28;20583;-38
2024/01/18 08:05:43;;;;;;;3.05;2.80;;;;;;;1.87;61.41;99206.75;5041923;28;20061;-39
2024/01/18 08:08:09;;;;;;;1.15;0.90;;;;;;;1.98;61.76;99207.06;5047204;28;20338;-39
2024/01/18 08:10:34;;;;;;;1.38;0.82;;;;;;;2.11;62.51;99202.97;5035588;28;20483;-39
2024/01/18 08:13:01;;;;;;;3.22;1.90;;;;;;;2.29;61.74;99205.63;5040549;28;20029;-39
2024/01/18 08:15:26;;;;;;;1.25;1.10;;;;;;;2.42;61.28;99213.66;5043957;28;20044;-38
2024/01/18 08:17:51;;;;;;;0.45;0.32;;;;;;;2.55;61.21;99219.06;5045589;28;20053;-39
2024/01/18 08:20:17;;;;;;;0.60;0.40;;;;;;;2.72;61.07;99219.09;5049656;28;20021;-39
2024/01/18 08:22:42;;;;;;;2.60;1.48;;;;;;;2.19;61.01;99212.16;5044139;28;20033;-38
2024/01/18 08:25:10;;;;;;;5.68;5.43;;;;;;;2.18;60.96;99211.31;5043759;28;20621;-39
2024/01/18 08:27:36;;;;;;;5.07;4.85;;;;;;;2.27;61.26;99217.81;5044778;28;20024;-38
2024/01/18 08:30:03;;;;;;;5.70;5.43;;;;;;;2.43;61.23;99223.97;5050662;28;20052;-38
2024/01/18 08:32:31;;;;;;;4.55;4.32;;;;;;;2.41;60.79;99220.59;5047278;28;20102;-40
2024/01/18 08:34:57;;;;;;;0.75;0.30;;;;;;;2.48;61.04;99218.53;5046857;28;20025;-39
2024/01/18 08:37:23;;;;;;;0.73;0.32;;;;;;;2.61;61.17;99215.34;5052764;28;20122;-38
2024/01/18 08:39:48;;;;;;;11.38;2.47;;;;;;;1.75;61.19;99224.53;5049537;28;20024;-38
2024/01/18 08:42:13;;;;;;;2.17;1.02;;;;;;;1.98;61.61;99225.22;5046036;28;20036;-39
2024/01/18 08:44:45;;;;;;;0.30;0.30;;;;;;;2.30;62.01;99230.66;5045859;28;20033;-38
2024/01/18 08:47:11;;;;;;;1.05;0.95;;;;;;;2.31;61.97;99234.09;5047723;28;20036;-38
2024/01/18 08:49:36;;;;;;;1.02;0.55;;;;;;;2.52;61.37;99242.59;5043271;28;20025;-39
2024/01/18 08:52:02;;;;;;;0.65;0.45;;;;;;;2.33;60.84;99248.69;5048175;28;20029;-39
2024/01/18 08:54:27;;;;;;;1.13;0.93;;;;;;;2.40;60.85;99244.88;5050919;28;20056;-39
2024/01/18 08:56:52;;;;;;;1.70;1.00;;;;;;;2.04;61.25;99258.66;5029922;28;20515;-39
2024/01/18 08:59:19;;;;;;;0.20;0.20;;;;;;;2.27;61.56;99254.16;5047614;28;20037;-38
2024/01/18 09:01:44;;;;;;;3.05;1.58;;;;;;;2.33;61.09;99253.03;5045708;28;20026;-38
2024/01/18 09:04:10;;;;;;;1.75;0.85;;;;;;;2.29;61.40;99258.34;5046885;28;20469;-39
2024/01/18 09:06:37;;;;;;;0.75;0.40;;;;;;;2.28;61.17;99267.06;5051631;28;20040;-39
2024/01/18 09:09:02;;;;;;;1.33;1.13;;;;;;;1.83;61.95;99283.81;5047946;28;20136;-38
2024/01/18 09:11:29;;;;;;;0.77;0.43;;;;;;;1.92;61.83;99277.38;5031419;28;20454;-38
2024/01/18 09:13:54;;;;;;;0.47;0.30;;;;;;;1.66;62.64;99279.41;5044508;28;20682;-39
2024/01/18 09:16:19;;;;;;;0.30;0.30;;;;;;;2.03;62.78;99282.09;5049362;28;20125;-39
2024/01/18 09:18:44;;;;;;;0.40;0.40;;;;;;;2.20;62.41;99289.94;5053801;28;20025;-38
2024/01/18 09:21:10;;;;;;;8.95;2.08;;;;;;;2.10;61.73;99297.31;5043148;28;20045;-38
2024/01/18 09:23:36;;;;;;;0.22;0.20;;;;;;;1.93;61.51;99299.81;5045520;28;20432;-39
2024/01/18 09:26:01;;;;;;;0.43;0.30;;;;;;;1.94;62.18;99304.09;5045431;28;20033;-37
2024/01/18 09:28:27;;;;;;;4.72;1.27;;;;;;;1.72;62.70;99310.25;5042098;28;20385;-39
2024/01/18 09:30:52;;;;;;;1.98;1.02;;;;;;;1.68;62.76;99306.13;5043287;28;20037;-37
2024/01/18 09:33:18;;;;;;;0.35;0.28;;;;;;;1.70;62.95;99304.31;5050433;28;20039;-38
2024/01/18 09:35:44;;;;;;;0.38;0.30;;;;;;;1.46;62.96;99303.63;5044113;28;20052;-39
2024/01/18 09:38:10;;;;;;;1.38;0.60;;;;;;;1.49;63.78;99306.91;5048047;28;20040;-37
2024/01/18 09:40:36;;;;;;;0.45;0.28;;;;;;;1.57;63.11;99311.75;5045015;28;20395;-38
2024/01/18 09:43:07;;;;;;;1.08;0.88;;;;;;;1.51;63.22;99312.88;5047640;28;20415;-38
2024/01/18 09:45:36;;;;;;;0.30;0.20;;;;;;;1.73;62.66;99318.88;5046982;28;20029;-38
2024/01/18 09:48:03;;;;;;;0.88;0.50;;;;;;;1.59;62.91;99322.09;5045991;28;20053;-39
2024/01/18 09:50:30;;;;;;;1.90;1.80;;;;;;;1.46;62.74;99324.34;5042902;28;20033;-38
2024/01/18 09:52:56;;;;;;;0.63;0.38;;;;;;;1.46;63.04;99332.97;5053491;28;20033;-38
2024/01/18 09:55:21;;;;;;;2.20;1.70;;;;;;;1.14;63.80;99334.31;5054081;28;20044;-38
2024/01/18 09:57:48;;;;;;;4.00;3.75;;;;;;;1.24;63.79;99330.44;5054622;28;20033;-39
2024/01/18 10:00:15;;;;;;;2.13;1.95;;;;;;;1.31;63.57;99334.47;5048092;28;20016;-39
2024/01/18 10:02:40;;;;;;;0.22;0.22;;;;;;;1.42;63.25;99341.78;5054998;28;20064;-38
2024/01/18 10:05:07;;;;;;;0.45;0.35;;;;;;;1.43;63.44;99351.25;5048821;28;20091;-38
2024/01/18 10:07:32;;;;;;;0.65;0.47;;;;;;;1.48;63.42;99358.84;5055814;28;20095;-37
2024/01/18 10:09:57;;;;;;;1.08;0.50;;;;;;;1.71;63.10;99347.47;5050530;28;20040;-39
2024/01/18 10:12:30;;;;;;;2.90;2.67;;;;;;;1.46;63.03;99351.09;5049640;28;20048;-38
2024/01/18 10:14:55;;;;;;;0.55;0.32;;;;;;;1.62;63.23;99343.53;5043050;28;20029;-38
2024/01/18 10:17:21;;;;;;;2.10;1.98;;;;;;;1.58;62.78;99341.16;5043450;28;20090;-37
2024/01/18 10:19:51;;;;;;;0.70;0.70;;;;;;;1.48;62.83;99343.28;5047168;28;20028;-38
2024/01/18 10:22:17;;;;;;;0.28;0.20;;;;;;;1.70;62.66;99358.75;5044601;28;20025;-39
2024/01/18 10:24:43;;;;;;;1.20;0.77;;;;;;;1.93;62.94;99369.88;5049117;28;20036;-38
2024/01/18 10:27:08;;;;;;;0.55;0.38;;;;;;;1.97;62.37;99374.03;5030856;28;20024;-38
2024/01/18 10:29:36;;;;;;;4.55;2.28;;;;;;;1.60;61.86;99368.69;5049659;28;20040;-38
2024/01/18 10:32:03;;;;;;;0.57;0.30;;;;;;;1.93;62.10;99373.31;5046032;28;20075;-37
2024/01/18 10:34:33;;;;;;;0.80;0.47;;;;;;;1.87;62.06;99380.53;5052758;28;20548;-39
2024/01/18 10:36:58;;;;;;;0.20;0.20;;;;;;;2.01;62.11;99382.50;5044238;28;20032;-38
2024/01/18 10:39:23;;;;;;;0.20;0.20;;;;;;;1.85;61.91;99377.16;5049461;28;20025;-39
2024/01/18 10:41:49;;;;;;;0.98;0.65;;;;;;;1.64;62.21;99374.56;5047460;28;20045;-38
2024/01/18 10:44:15;;;;;;;0.80;0.77;;;;;;;1.94;62.52;99379.34;5044513;28;20743;-38
2024/01/18 10:46:41;;;;;;;0.10;0.10;;;;;;;1.60;62.10;99385.97;5045699;28;20021;-38
2024/01/18 10:49:07;;;;;;;9.85;6.38;;;;;;;1.70;62.30;99382.09;5043434;28;20036;-38
2024/01/18 10:51:32;;;;;;;0.50;0.50;;;;;;;1.92;62.42;99381.16;5043049;28;20037;-39
2024/01/18 10:53:59;;;;;;;3.58;2.60;;;;;;;1.63;62.64;99383.25;5039472;28;20044;-38
2024/01/18 10:56:24;;;;;;;2.85;2.65;;;;;;;1.84;62.55;99373.72;5042707;28;20037;-38
2024/01/18 10:58:49;;;;;;;1.73;0.88;;;;;;;1.88;62.27;99377.03;5012642;28;20029;-38
2024/01/18 11:01:17;;;;;;;1.40;1.30;;;;;;;1.88;61.80;99377.03;5039033;28;20163;-38
2024/01/18 11:03:43;;;;;;;0.47;0.32;;;;;;;1.82;62.05;99389.34;5041683;28;20049;-38
2024/01/18 11:06:12;;;;;;;5.82;4.72;;;;;;;1.21;62.86;99400.56;5037456;28;20037;-38
2024/01/18 11:08:38;;;;;;;0.43;0.43;;;;;;;1.37;63.15;99398.16;5045481;28;20170;-39
2024/01/18 11:11:04;;;;;;;2.97;2.67;;;;;;;1.64;62.16;99408.28;5043201;28;20025;-39
2024/01/18 11:13:29;;;;;;;0.80;0.68;;;;;;;1.43;62.95;99413.47;5038045;28;20029;-39
2024/01/18 11:15:55;;;;;;;0.90;0.90;;;;;;;1.36;62.79;99412.84;5039347;28;20476;-39
2024/01/18 11:18:21;;;;;;;1.45;0.95;;;;;;;1.30;62.30;99415.72;5039166;28;20044;-38
2024/01/18 11:21:08;;;;;;;1.27;0.77;;;;;;;1.63;62.12;99411.78;5039987;28;20163;-38
2024/01/18 11:23:34;;;;;;;0.35;0.30;;;;;;;1.42;62.63;99411.78;5044446;28;20032;-38
2024/01/18 11:25:59;;;;;;;0.93;0.45;;;;;;;1.63;62.88;99398.81;5043025;28;20033;-38
2024/01/18 11:28:25;;;;;;;1.60;0.70;;;;;;;1.23;63.03;99405.66;5041855;28;21249;-39
2024/01/18 11:30:51;;;;;;;2.72;2.38;;;;;;;1.29;62.71;99413.16;5041191;28;20100;-39
2024/01/18 11:33:17;;;;;;;3.75;1.33;;;;;;;1.49;63.19;99415.78;5042398;28;20036;-38